sensor_id;sensor_type;location;lat;lon;timestamp;P1;durP1;ratioP1;P2;durP2;ratioP2
55913;SDS011;58179;48.776;9.124;2023-04-06T00:00:06;17.77;;;13.13;;
55913;SDS011;58179;48.776;9.124;2023-04-06T00:02:34;19.73;;;13.90;;
55913;SDS011;58179;48.776;9.124;2023-04-06T00:05:00;18.55;;;13.52;;
55913;SDS011;58179;48.776;9.124;2023-04-06T00:07:26;18.65;;;13.70;;
55913;SDS011;58179;48.776;9.124;2023-04-06T00:09:54;16.35;;;12.57;;
55913;SDS011;58179;48.776;9.124;2023-04-06T00:12:22;18.35;;;13.27;;
55913;SDS011;58179;48.776;9.124;2023-04-06T00:14:48;16.63;;;13.25;;
55913;SDS011;58179;48.776;9.124;2023-04-06T00:17:14;19.95;;;15.70;;
55913;SDS011;58179;48.776;9.124;2023-04-06T00:19:41;17.83;;;13.73;;
55913;SDS011;58179;48.776;9.124;2023-04-06T00:22:07;20.37;;;14.37;;
55913;SDS011;58179;48.776;9.124;2023-04-06T00:24:33;23.50;;;16.20;;
55913;SDS011;58179;48.776;9.124;2023-04-06T00:27:00;26.65;;;15.30;;
55913;SDS011;58179;48.776;9.124;2023-04-06T00:29:27;22.48;;;14.90;;
55913;SDS011;58179;48.776;9.124;2023-04-06T00:31:54;18.20;;;13.80;;
55913;SDS011;58179;48.776;9.124;2023-04-06T00:34:20;16.70;;;12.90;;
55913;SDS011;58179;48.776;9.124;2023-04-06T00:36:46;20.60;;;14.23;;
55913;SDS011;58179;48.776;9.124;2023-04-06T00:39:13;18.60;;;14.27;;
55913;SDS011;58179;48.776;9.124;2023-04-06T00:41:39;17.52;;;14.05;;
55913;SDS011;58179;48.776;9.124;2023-04-06T00:44:10;20.30;;;14.98;;
55913;SDS011;58179;48.776;9.124;2023-04-06T00:46:39;22.52;;;16.13;;
55913;SDS011;58179;48.776;9.124;2023-04-06T00:49:05;22.10;;;14.43;;
55913;SDS011;58179;48.776;9.124;2023-04-06T00:51:31;20.60;;;14.20;;
55913;SDS011;58179;48.776;9.124;2023-04-06T00:53:57;23.98;;;13.60;;
55913;SDS011;58179;48.776;9.124;2023-04-06T00:56:23;19.00;;;13.82;;
55913;SDS011;58179;48.776;9.124;2023-04-06T00:58:52;18.75;;;14.65;;
55913;SDS011;58179;48.776;9.124;2023-04-06T01:01:18;19.58;;;14.02;;
55913;SDS011;58179;48.776;9.124;2023-04-06T01:03:46;18.53;;;12.43;;
55913;SDS011;58179;48.776;9.124;2023-04-06T01:06:14;19.05;;;13.60;;
55913;SDS011;58179;48.776;9.124;2023-04-06T01:08:41;18.92;;;13.85;;
55913;SDS011;58179;48.776;9.124;2023-04-06T01:11:07;17.80;;;14.18;;
55913;SDS011;58179;48.776;9.124;2023-04-06T01:13:34;20.70;;;13.77;;
55913;SDS011;58179;48.776;9.124;2023-04-06T01:16:02;18.38;;;13.07;;
55913;SDS011;58179;48.776;9.124;2023-04-06T01:18:29;21.25;;;14.43;;
55913;SDS011;58179;48.776;9.124;2023-04-06T01:20:57;23.13;;;15.32;;
55913;SDS011;58179;48.776;9.124;2023-04-06T01:23:25;20.10;;;14.93;;
55913;SDS011;58179;48.776;9.124;2023-04-06T01:25:52;21.05;;;14.25;;
55913;SDS011;58179;48.776;9.124;2023-04-06T01:28:18;20.92;;;15.70;;
55913;SDS011;58179;48.776;9.124;2023-04-06T01:30:44;19.13;;;14.38;;
55913;SDS011;58179;48.776;9.124;2023-04-06T01:33:12;21.35;;;15.43;;
55913;SDS011;58179;48.776;9.124;2023-04-06T01:35:39;19.17;;;14.30;;
55913;SDS011;58179;48.776;9.124;2023-04-06T01:38:05;18.70;;;14.65;;
55913;SDS011;58179;48.776;9.124;2023-04-06T01:40:33;20.48;;;15.68;;
55913;SDS011;58179;48.776;9.124;2023-04-06T01:43:00;19.77;;;14.43;;
55913;SDS011;58179;48.776;9.124;2023-04-06T01:45:26;19.08;;;14.18;;
55913;SDS011;58179;48.776;9.124;2023-04-06T01:47:52;20.35;;;14.35;;
55913;SDS011;58179;48.776;9.124;2023-04-06T01:50:20;19.17;;;13.57;;
55913;SDS011;58179;48.776;9.124;2023-04-06T01:52:46;18.80;;;14.05;;
55913;SDS011;58179;48.776;9.124;2023-04-06T01:55:12;20.42;;;14.23;;
55913;SDS011;58179;48.776;9.124;2023-04-06T01:57:41;19.48;;;14.40;;
55913;SDS011;58179;48.776;9.124;2023-04-06T02:00:08;23.25;;;15.90;;
55913;SDS011;58179;48.776;9.124;2023-04-06T02:02:36;19.52;;;14.95;;
55913;SDS011;58179;48.776;9.124;2023-04-06T02:05:02;20.73;;;15.60;;
55913;SDS011;58179;48.776;9.124;2023-04-06T02:07:30;19.90;;;15.30;;
55913;SDS011;58179;48.776;9.124;2023-04-06T02:09:57;21.42;;;15.88;;
55913;SDS011;58179;48.776;9.124;2023-04-06T02:12:23;24.50;;;17.25;;
55913;SDS011;58179;48.776;9.124;2023-04-06T02:14:50;22.35;;;17.08;;
55913;SDS011;58179;48.776;9.124;2023-04-06T02:17:17;22.05;;;17.30;;
55913;SDS011;58179;48.776;9.124;2023-04-06T02:19:43;23.92;;;17.10;;
55913;SDS011;58179;48.776;9.124;2023-04-06T02:22:09;20.67;;;16.08;;
55913;SDS011;58179;48.776;9.124;2023-04-06T02:24:35;20.45;;;14.98;;
55913;SDS011;58179;48.776;9.124;2023-04-06T02:27:01;23.07;;;16.87;;
55913;SDS011;58179;48.776;9.124;2023-04-06T02:29:27;19.10;;;14.88;;
55913;SDS011;58179;48.776;9.124;2023-04-06T02:31:55;25.63;;;17.83;;
55913;SDS011;58179;48.776;9.124;2023-04-06T02:34:21;22.80;;;16.80;;
55913;SDS011;58179;48.776;9.124;2023-04-06T02:36:47;24.15;;;16.48;;
55913;SDS011;58179;48.776;9.124;2023-04-06T02:39:13;22.60;;;17.10;;
55913;SDS011;58179;48.776;9.124;2023-04-06T02:41:39;20.77;;;15.98;;
55913;SDS011;58179;48.776;9.124;2023-04-06T02:44:06;21.08;;;16.35;;
55913;SDS011;58179;48.776;9.124;2023-04-06T02:46:33;23.00;;;18.05;;
55913;SDS011;58179;48.776;9.124;2023-04-06T02:49:01;26.25;;;18.65;;
55913;SDS011;58179;48.776;9.124;2023-04-06T02:51:27;23.97;;;16.47;;
55913;SDS011;58179;48.776;9.124;2023-04-06T02:53:55;25.70;;;17.67;;
55913;SDS011;58179;48.776;9.124;2023-04-06T02:56:21;26.25;;;17.73;;
55913;SDS011;58179;48.776;9.124;2023-04-06T02:58:47;21.42;;;16.90;;
55913;SDS011;58179;48.776;9.124;2023-04-06T03:01:13;28.05;;;19.27;;
55913;SDS011;58179;48.776;9.124;2023-04-06T03:03:41;23.37;;;17.00;;
55913;SDS011;58179;48.776;9.124;2023-04-06T03:06:08;23.63;;;17.60;;
55913;SDS011;58179;48.776;9.124;2023-04-06T03:08:34;23.52;;;16.88;;
55913;SDS011;58179;48.776;9.124;2023-04-06T03:11:00;22.63;;;16.42;;
55913;SDS011;58179;48.776;9.124;2023-04-06T03:13:26;27.20;;;18.00;;
55913;SDS011;58179;48.776;9.124;2023-04-06T03:15:52;25.50;;;18.08;;
55913;SDS011;58179;48.776;9.124;2023-04-06T03:18:20;31.42;;;19.73;;
55913;SDS011;58179;48.776;9.124;2023-04-06T03:20:48;23.80;;;18.33;;
55913;SDS011;58179;48.776;9.124;2023-04-06T03:23:17;27.15;;;19.58;;
55913;SDS011;58179;48.776;9.124;2023-04-06T03:25:45;27.13;;;19.75;;
55913;SDS011;58179;48.776;9.124;2023-04-06T03:28:11;26.30;;;19.75;;
55913;SDS011;58179;48.776;9.124;2023-04-06T03:30:39;24.40;;;17.75;;
55913;SDS011;58179;48.776;9.124;2023-04-06T03:33:05;25.48;;;18.13;;
55913;SDS011;58179;48.776;9.124;2023-04-06T03:35:31;26.38;;;18.15;;
55913;SDS011;58179;48.776;9.124;2023-04-06T03:37:57;27.35;;;20.13;;
55913;SDS011;58179;48.776;9.124;2023-04-06T03:40:24;26.55;;;18.55;;
55913;SDS011;58179;48.776;9.124;2023-04-06T03:42:50;26.63;;;19.65;;
55913;SDS011;58179;48.776;9.124;2023-04-06T03:45:16;25.23;;;17.92;;
55913;SDS011;58179;48.776;9.124;2023-04-06T03:47:42;29.65;;;19.20;;
55913;SDS011;58179;48.776;9.124;2023-04-06T03:50:08;28.83;;;20.60;;
55913;SDS011;58179;48.776;9.124;2023-04-06T03:52:35;26.17;;;19.35;;
55913;SDS011;58179;48.776;9.124;2023-04-06T03:55:01;24.10;;;18.63;;
55913;SDS011;58179;48.776;9.124;2023-04-06T03:57:30;26.63;;;19.55;;
55913;SDS011;58179;48.776;9.124;2023-04-06T03:59:56;25.05;;;18.60;;
55913;SDS011;58179;48.776;9.124;2023-04-06T04:02:22;25.90;;;18.77;;
55913;SDS011;58179;48.776;9.124;2023-04-06T04:04:48;27.02;;;19.35;;
55913;SDS011;58179;48.776;9.124;2023-04-06T04:07:14;25.42;;;18.90;;
55913;SDS011;58179;48.776;9.124;2023-04-06T04:09:40;29.42;;;20.48;;
55913;SDS011;58179;48.776;9.124;2023-04-06T04:12:06;31.67;;;20.70;;
55913;SDS011;58179;48.776;9.124;2023-04-06T04:14:34;31.48;;;22.05;;
55913;SDS011;58179;48.776;9.124;2023-04-06T04:17:00;34.42;;;23.05;;
55913;SDS011;58179;48.776;9.124;2023-04-06T04:19:27;27.02;;;20.05;;
55913;SDS011;58179;48.776;9.124;2023-04-06T04:21:53;30.50;;;21.52;;
55913;SDS011;58179;48.776;9.124;2023-04-06T04:24:19;25.08;;;19.38;;
55913;SDS011;58179;48.776;9.124;2023-04-06T04:26:45;34.17;;;22.23;;
55913;SDS011;58179;48.776;9.124;2023-04-06T04:29:11;31.65;;;22.88;;
55913;SDS011;58179;48.776;9.124;2023-04-06T04:31:38;29.90;;;22.30;;
55913;SDS011;58179;48.776;9.124;2023-04-06T04:34:05;28.33;;;20.02;;
55913;SDS011;58179;48.776;9.124;2023-04-06T04:36:31;28.38;;;20.55;;
55913;SDS011;58179;48.776;9.124;2023-04-06T04:38:58;25.17;;;17.98;;
55913;SDS011;58179;48.776;9.124;2023-04-06T04:41:26;26.45;;;18.33;;
55913;SDS011;58179;48.776;9.124;2023-04-06T04:43:52;23.73;;;18.20;;
55913;SDS011;58179;48.776;9.124;2023-04-06T04:46:18;24.27;;;18.30;;
55913;SDS011;58179;48.776;9.124;2023-04-06T04:48:46;30.27;;;21.08;;
55913;SDS011;58179;48.776;9.124;2023-04-06T04:51:12;29.33;;;19.13;;
55913;SDS011;58179;48.776;9.124;2023-04-06T04:53:38;28.35;;;19.60;;
55913;SDS011;58179;48.776;9.124;2023-04-06T04:56:05;25.65;;;19.40;;
55913;SDS011;58179;48.776;9.124;2023-04-06T04:58:31;30.00;;;20.47;;
55913;SDS011;58179;48.776;9.124;2023-04-06T05:00:57;30.17;;;21.63;;
55913;SDS011;58179;48.776;9.124;2023-04-06T05:03:23;28.80;;;21.15;;
55913;SDS011;58179;48.776;9.124;2023-04-06T05:05:52;26.55;;;19.38;;
55913;SDS011;58179;48.776;9.124;2023-04-06T05:08:18;26.67;;;19.15;;
55913;SDS011;58179;48.776;9.124;2023-04-06T05:10:45;26.98;;;19.95;;
55913;SDS011;58179;48.776;9.124;2023-04-06T05:13:11;28.88;;;20.63;;
55913;SDS011;58179;48.776;9.124;2023-04-06T05:15:37;26.92;;;20.15;;
55913;SDS011;58179;48.776;9.124;2023-04-06T05:18:05;30.52;;;20.80;;
55913;SDS011;58179;48.776;9.124;2023-04-06T05:20:31;32.92;;;22.23;;
55913;SDS011;58179;48.776;9.124;2023-04-06T05:23:00;29.33;;;22.07;;
55913;SDS011;58179;48.776;9.124;2023-04-06T05:25:27;31.02;;;21.35;;
55913;SDS011;58179;48.776;9.124;2023-04-06T05:27:53;30.40;;;21.58;;
55913;SDS011;58179;48.776;9.124;2023-04-06T05:30:20;27.35;;;20.38;;
55913;SDS011;58179;48.776;9.124;2023-04-06T05:32:47;30.13;;;21.05;;
55913;SDS011;58179;48.776;9.124;2023-04-06T05:35:13;29.25;;;21.52;;
55913;SDS011;58179;48.776;9.124;2023-04-06T05:37:39;30.38;;;21.88;;
55913;SDS011;58179;48.776;9.124;2023-04-06T05:40:07;28.08;;;21.23;;
55913;SDS011;58179;48.776;9.124;2023-04-06T05:42:35;29.80;;;21.52;;
55913;SDS011;58179;48.776;9.124;2023-04-06T05:45:03;27.00;;;20.20;;
55913;SDS011;58179;48.776;9.124;2023-04-06T05:47:31;29.05;;;21.17;;
55913;SDS011;58179;48.776;9.124;2023-04-06T05:49:57;27.87;;;19.90;;
55913;SDS011;58179;48.776;9.124;2023-04-06T05:52:23;26.98;;;19.90;;
55913;SDS011;58179;48.776;9.124;2023-04-06T05:54:49;31.50;;;21.95;;
55913;SDS011;58179;48.776;9.124;2023-04-06T05:57:17;27.70;;;21.05;;
55913;SDS011;58179;48.776;9.124;2023-04-06T05:59:44;30.80;;;20.67;;
55913;SDS011;58179;48.776;9.124;2023-04-06T06:02:10;29.90;;;19.67;;
55913;SDS011;58179;48.776;9.124;2023-04-06T06:04:36;30.88;;;20.35;;
55913;SDS011;58179;48.776;9.124;2023-04-06T06:07:04;29.08;;;20.55;;
55913;SDS011;58179;48.776;9.124;2023-04-06T06:09:30;27.70;;;20.33;;
55913;SDS011;58179;48.776;9.124;2023-04-06T06:11:56;26.85;;;19.65;;
55913;SDS011;58179;48.776;9.124;2023-04-06T06:14:23;27.20;;;19.05;;
55913;SDS011;58179;48.776;9.124;2023-04-06T06:16:50;28.15;;;19.50;;
55913;SDS011;58179;48.776;9.124;2023-04-06T06:19:17;30.52;;;21.48;;
55913;SDS011;58179;48.776;9.124;2023-04-06T06:21:43;29.80;;;21.33;;
55913;SDS011;58179;48.776;9.124;2023-04-06T06:24:09;29.35;;;20.73;;
55913;SDS011;58179;48.776;9.124;2023-04-06T06:26:35;30.08;;;20.90;;
55913;SDS011;58179;48.776;9.124;2023-04-06T06:29:02;33.60;;;21.57;;
55913;SDS011;58179;48.776;9.124;2023-04-06T06:31:31;25.17;;;19.33;;
55913;SDS011;58179;48.776;9.124;2023-04-06T06:33:57;29.08;;;20.23;;
55913;SDS011;58179;48.776;9.124;2023-04-06T06:36:25;36.80;;;22.77;;
55913;SDS011;58179;48.776;9.124;2023-04-06T06:38:51;31.30;;;20.30;;
55913;SDS011;58179;48.776;9.124;2023-04-06T06:41:17;28.42;;;19.63;;
55913;SDS011;58179;48.776;9.124;2023-04-06T06:43:43;29.17;;;20.15;;
55913;SDS011;58179;48.776;9.124;2023-04-06T06:46:09;30.52;;;22.05;;
55913;SDS011;58179;48.776;9.124;2023-04-06T06:48:37;27.88;;;19.75;;
55913;SDS011;58179;48.776;9.124;2023-04-06T06:51:03;21.00;;;14.40;;
55913;SDS011;58179;48.776;9.124;2023-04-06T06:53:29;25.27;;;17.08;;
55913;SDS011;58179;48.776;9.124;2023-04-06T06:55:55;25.67;;;17.52;;
55913;SDS011;58179;48.776;9.124;2023-04-06T06:58:21;20.75;;;15.35;;
55913;SDS011;58179;48.776;9.124;2023-04-06T07:00:48;26.13;;;18.10;;
55913;SDS011;58179;48.776;9.124;2023-04-06T07:03:14;25.13;;;18.15;;
55913;SDS011;58179;48.776;9.124;2023-04-06T07:05:46;22.80;;;15.93;;
55913;SDS011;58179;48.776;9.124;2023-04-06T07:08:17;29.25;;;20.35;;
55913;SDS011;58179;48.776;9.124;2023-04-06T07:10:45;23.83;;;16.65;;
55913;SDS011;58179;48.776;9.124;2023-04-06T07:13:14;25.90;;;18.88;;
55913;SDS011;58179;48.776;9.124;2023-04-06T07:15:45;26.50;;;17.70;;
55913;SDS011;58179;48.776;9.124;2023-04-06T07:18:12;22.00;;;16.15;;
55913;SDS011;58179;48.776;9.124;2023-04-06T07:20:39;22.08;;;15.50;;
55913;SDS011;58179;48.776;9.124;2023-04-06T07:23:08;21.50;;;15.13;;
55913;SDS011;58179;48.776;9.124;2023-04-06T07:25:34;22.23;;;15.32;;
55913;SDS011;58179;48.776;9.124;2023-04-06T07:28:00;22.50;;;14.20;;
55913;SDS011;58179;48.776;9.124;2023-04-06T07:30:27;21.90;;;14.73;;
55913;SDS011;58179;48.776;9.124;2023-04-06T07:32:55;19.67;;;13.55;;
55913;SDS011;58179;48.776;9.124;2023-04-06T07:35:21;22.60;;;13.60;;
55913;SDS011;58179;48.776;9.124;2023-04-06T07:37:47;20.98;;;14.05;;
55913;SDS011;58179;48.776;9.124;2023-04-06T07:40:15;20.83;;;13.20;;
55913;SDS011;58179;48.776;9.124;2023-04-06T07:42:41;22.40;;;13.90;;
55913;SDS011;58179;48.776;9.124;2023-04-06T07:45:07;28.13;;;14.40;;
55913;SDS011;58179;48.776;9.124;2023-04-06T07:47:34;21.83;;;13.90;;
55913;SDS011;58179;48.776;9.124;2023-04-06T07:50:01;21.02;;;13.85;;
55913;SDS011;58179;48.776;9.124;2023-04-06T07:52:28;19.08;;;12.23;;
55913;SDS011;58179;48.776;9.124;2023-04-06T07:54:55;18.35;;;12.20;;
55913;SDS011;58179;48.776;9.124;2023-04-06T07:57:22;17.92;;;11.98;;
55913;SDS011;58179;48.776;9.124;2023-04-06T07:59:48;19.00;;;12.30;;
55913;SDS011;58179;48.776;9.124;2023-04-06T08:02:15;16.75;;;11.98;;
55913;SDS011;58179;48.776;9.124;2023-04-06T08:04:41;21.95;;;14.25;;
55913;SDS011;58179;48.776;9.124;2023-04-06T08:07:07;21.02;;;14.07;;
55913;SDS011;58179;48.776;9.124;2023-04-06T08:09:33;21.27;;;14.73;;
55913;SDS011;58179;48.776;9.124;2023-04-06T08:12:01;20.40;;;13.90;;
55913;SDS011;58179;48.776;9.124;2023-04-06T08:14:28;18.93;;;13.50;;
55913;SDS011;58179;48.776;9.124;2023-04-06T08:16:54;19.83;;;14.07;;
55913;SDS011;58179;48.776;9.124;2023-04-06T08:19:20;18.92;;;13.55;;
55913;SDS011;58179;48.776;9.124;2023-04-06T08:21:47;25.27;;;14.52;;
55913;SDS011;58179;48.776;9.124;2023-04-06T08:24:13;19.08;;;13.32;;
55913;SDS011;58179;48.776;9.124;2023-04-06T08:26:39;22.17;;;14.82;;
55913;SDS011;58179;48.776;9.124;2023-04-06T08:29:05;21.10;;;14.00;;
55913;SDS011;58179;48.776;9.124;2023-04-06T08:31:36;24.50;;;15.60;;
55913;SDS011;58179;48.776;9.124;2023-04-06T08:34:03;22.35;;;15.15;;
55913;SDS011;58179;48.776;9.124;2023-04-06T08:36:30;24.25;;;15.07;;
55913;SDS011;58179;48.776;9.124;2023-04-06T08:38:57;20.17;;;14.43;;
55913;SDS011;58179;48.776;9.124;2023-04-06T08:41:25;23.80;;;14.88;;
55913;SDS011;58179;48.776;9.124;2023-04-06T08:43:55;21.85;;;13.30;;
55913;SDS011;58179;48.776;9.124;2023-04-06T08:46:23;22.17;;;15.05;;
55913;SDS011;58179;48.776;9.124;2023-04-06T08:48:58;20.17;;;14.03;;
55913;SDS011;58179;48.776;9.124;2023-04-06T08:51:26;19.33;;;13.60;;
55913;SDS011;58179;48.776;9.124;2023-04-06T08:53:53;23.40;;;14.35;;
55913;SDS011;58179;48.776;9.124;2023-04-06T08:56:20;21.55;;;14.43;;
55913;SDS011;58179;48.776;9.124;2023-04-06T08:58:47;21.75;;;14.80;;
55913;SDS011;58179;48.776;9.124;2023-04-06T09:01:14;22.25;;;13.48;;
55913;SDS011;58179;48.776;9.124;2023-04-06T09:03:43;21.60;;;13.70;;
55913;SDS011;58179;48.776;9.124;2023-04-06T09:06:12;21.30;;;11.88;;
55913;SDS011;58179;48.776;9.124;2023-04-06T09:08:39;17.42;;;12.38;;
55913;SDS011;58179;48.776;9.124;2023-04-06T09:11:06;17.52;;;10.98;;
55913;SDS011;58179;48.776;9.124;2023-04-06T09:13:43;18.20;;;11.73;;
55913;SDS011;58179;48.776;9.124;2023-04-06T09:16:13;19.35;;;11.90;;
55913;SDS011;58179;48.776;9.124;2023-04-06T09:18:40;16.70;;;11.95;;
55913;SDS011;58179;48.776;9.124;2023-04-06T09:21:06;18.05;;;11.85;;
55913;SDS011;58179;48.776;9.124;2023-04-06T09:23:35;18.75;;;12.07;;
55913;SDS011;58179;48.776;9.124;2023-04-06T09:26:05;18.45;;;11.23;;
55913;SDS011;58179;48.776;9.124;2023-04-06T09:28:42;15.57;;;11.40;;
55913;SDS011;58179;48.776;9.124;2023-04-06T09:31:13;17.63;;;11.68;;
55913;SDS011;58179;48.776;9.124;2023-04-06T09:33:40;16.58;;;11.25;;
55913;SDS011;58179;48.776;9.124;2023-04-06T09:36:10;13.82;;;9.88;;
55913;SDS011;58179;48.776;9.124;2023-04-06T09:38:50;16.77;;;10.73;;
55913;SDS011;58179;48.776;9.124;2023-04-06T09:41:23;15.80;;;10.77;;
55913;SDS011;58179;48.776;9.124;2023-04-06T09:43:51;18.77;;;12.23;;
55913;SDS011;58179;48.776;9.124;2023-04-06T09:46:26;17.48;;;11.90;;
55913;SDS011;58179;48.776;9.124;2023-04-06T09:48:55;17.00;;;11.40;;
55913;SDS011;58179;48.776;9.124;2023-04-06T09:51:23;17.77;;;11.60;;
55913;SDS011;58179;48.776;9.124;2023-04-06T09:53:53;15.73;;;10.73;;
55913;SDS011;58179;48.776;9.124;2023-04-06T09:56:23;16.33;;;10.50;;
55913;SDS011;58179;48.776;9.124;2023-04-06T09:58:53;16.47;;;10.67;;
55913;SDS011;58179;48.776;9.124;2023-04-06T10:01:26;14.60;;;9.73;;
55913;SDS011;58179;48.776;9.124;2023-04-06T10:04:00;16.80;;;10.73;;
55913;SDS011;58179;48.776;9.124;2023-04-06T10:06:38;18.25;;;10.70;;
55913;SDS011;58179;48.776;9.124;2023-04-06T10:09:06;16.25;;;10.32;;
55913;SDS011;58179;48.776;9.124;2023-04-06T10:11:33;15.63;;;10.40;;
55913;SDS011;58179;48.776;9.124;2023-04-06T10:14:00;16.63;;;10.45;;
55913;SDS011;58179;48.776;9.124;2023-04-06T10:16:26;18.40;;;11.05;;
55913;SDS011;58179;48.776;9.124;2023-04-06T10:18:56;15.45;;;8.95;;
55913;SDS011;58179;48.776;9.124;2023-04-06T10:21:27;15.88;;;8.70;;
55913;SDS011;58179;48.776;9.124;2023-04-06T10:23:58;14.93;;;8.52;;
55913;SDS011;58179;48.776;9.124;2023-04-06T10:26:27;14.18;;;8.52;;
55913;SDS011;58179;48.776;9.124;2023-04-06T10:28:54;13.50;;;7.88;;
55913;SDS011;58179;48.776;9.124;2023-04-06T10:31:23;11.82;;;7.55;;
55913;SDS011;58179;48.776;9.124;2023-04-06T10:33:54;10.70;;;7.20;;
55913;SDS011;58179;48.776;9.124;2023-04-06T10:36:23;8.57;;;6.28;;
55913;SDS011;58179;48.776;9.124;2023-04-06T10:38:56;7.80;;;6.60;;
55913;SDS011;58179;48.776;9.124;2023-04-06T10:41:32;12.27;;;7.93;;
55913;SDS011;58179;48.776;9.124;2023-04-06T10:43:59;8.80;;;6.07;;
55913;SDS011;58179;48.776;9.124;2023-04-06T10:46:26;11.80;;;7.45;;
55913;SDS011;58179;48.776;9.124;2023-04-06T10:48:56;11.55;;;7.30;;
55913;SDS011;58179;48.776;9.124;2023-04-06T10:51:37;11.03;;;7.30;;
55913;SDS011;58179;48.776;9.124;2023-04-06T10:54:04;12.38;;;8.80;;
55913;SDS011;58179;48.776;9.124;2023-04-06T10:56:35;12.75;;;8.48;;
55913;SDS011;58179;48.776;9.124;2023-04-06T10:59:04;10.98;;;7.38;;
55913;SDS011;58179;48.776;9.124;2023-04-06T11:01:32;7.60;;;5.53;;
55913;SDS011;58179;48.776;9.124;2023-04-06T11:03:58;11.20;;;7.27;;
55913;SDS011;58179;48.776;9.124;2023-04-06T11:06:24;10.77;;;6.57;;
55913;SDS011;58179;48.776;9.124;2023-04-06T11:08:54;8.23;;;5.63;;
55913;SDS011;58179;48.776;9.124;2023-04-06T11:11:22;8.35;;;5.88;;
55913;SDS011;58179;48.776;9.124;2023-04-06T11:13:54;7.07;;;4.95;;
55913;SDS011;58179;48.776;9.124;2023-04-06T11:16:23;8.20;;;5.93;;
55913;SDS011;58179;48.776;9.124;2023-04-06T11:18:52;8.93;;;6.28;;
55913;SDS011;58179;48.776;9.124;2023-04-06T11:21:31;13.18;;;7.18;;
55913;SDS011;58179;48.776;9.124;2023-04-06T11:24:08;11.07;;;6.60;;
55913;SDS011;58179;48.776;9.124;2023-04-06T11:26:38;9.00;;;5.40;;
55913;SDS011;58179;48.776;9.124;2023-04-06T11:29:08;10.57;;;6.68;;
55913;SDS011;58179;48.776;9.124;2023-04-06T11:31:38;13.10;;;7.55;;
55913;SDS011;58179;48.776;9.124;2023-04-06T11:34:11;7.90;;;5.68;;
55913;SDS011;58179;48.776;9.124;2023-04-06T11:36:41;7.55;;;5.47;;
55913;SDS011;58179;48.776;9.124;2023-04-06T11:39:09;8.18;;;6.03;;
55913;SDS011;58179;48.776;9.124;2023-04-06T11:41:37;11.23;;;7.18;;
55913;SDS011;58179;48.776;9.124;2023-04-06T11:44:03;10.82;;;6.10;;
55913;SDS011;58179;48.776;9.124;2023-04-06T11:46:31;10.05;;;6.28;;
55913;SDS011;58179;48.776;9.124;2023-04-06T11:48:58;7.25;;;4.97;;
55913;SDS011;58179;48.776;9.124;2023-04-06T11:51:25;6.60;;;5.30;;
55913;SDS011;58179;48.776;9.124;2023-04-06T11:53:53;9.88;;;6.70;;
55913;SDS011;58179;48.776;9.124;2023-04-06T11:56:23;11.60;;;7.47;;
55913;SDS011;58179;48.776;9.124;2023-04-06T11:58:53;11.47;;;7.50;;
55913;SDS011;58179;48.776;9.124;2023-04-06T12:01:20;9.73;;;6.28;;
55913;SDS011;58179;48.776;9.124;2023-04-06T12:03:48;8.68;;;6.18;;
55913;SDS011;58179;48.776;9.124;2023-04-06T12:06:14;7.22;;;5.57;;
55913;SDS011;58179;48.776;9.124;2023-04-06T12:08:41;6.43;;;4.30;;
55913;SDS011;58179;48.776;9.124;2023-04-06T12:11:09;7.07;;;4.95;;
55913;SDS011;58179;48.776;9.124;2023-04-06T12:13:35;8.00;;;5.28;;
55913;SDS011;58179;48.776;9.124;2023-04-06T12:16:01;6.83;;;4.80;;
55913;SDS011;58179;48.776;9.124;2023-04-06T12:18:28;8.27;;;4.32;;
55913;SDS011;58179;48.776;9.124;2023-04-06T12:20:56;5.45;;;4.00;;
55913;SDS011;58179;48.776;9.124;2023-04-06T12:23:22;9.73;;;5.17;;
55913;SDS011;58179;48.776;9.124;2023-04-06T12:25:48;11.40;;;6.90;;
55913;SDS011;58179;48.776;9.124;2023-04-06T12:28:15;6.25;;;4.03;;
55913;SDS011;58179;48.776;9.124;2023-04-06T12:30:42;5.75;;;4.43;;
55913;SDS011;58179;48.776;9.124;2023-04-06T12:33:10;4.93;;;3.55;;
55913;SDS011;58179;48.776;9.124;2023-04-06T12:35:36;5.03;;;3.67;;
55913;SDS011;58179;48.776;9.124;2023-04-06T12:38:03;7.40;;;4.35;;
55913;SDS011;58179;48.776;9.124;2023-04-06T12:40:30;4.43;;;3.13;;
55913;SDS011;58179;48.776;9.124;2023-04-06T12:42:57;4.68;;;3.42;;
55913;SDS011;58179;48.776;9.124;2023-04-06T12:45:23;5.33;;;3.17;;
55913;SDS011;58179;48.776;9.124;2023-04-06T12:47:50;4.57;;;2.85;;
55913;SDS011;58179;48.776;9.124;2023-04-06T12:50:16;5.43;;;3.70;;
55913;SDS011;58179;48.776;9.124;2023-04-06T12:52:42;6.82;;;3.85;;
55913;SDS011;58179;48.776;9.124;2023-04-06T12:55:10;8.20;;;5.38;;
55913;SDS011;58179;48.776;9.124;2023-04-06T12:57:36;7.50;;;4.68;;
55913;SDS011;58179;48.776;9.124;2023-04-06T13:00:02;5.53;;;4.22;;
55913;SDS011;58179;48.776;9.124;2023-04-06T13:02:30;9.30;;;5.82;;
55913;SDS011;58179;48.776;9.124;2023-04-06T13:04:56;6.23;;;4.77;;
55913;SDS011;58179;48.776;9.124;2023-04-06T13:07:22;8.48;;;5.20;;
55913;SDS011;58179;48.776;9.124;2023-04-06T13:09:48;7.82;;;6.25;;
55913;SDS011;58179;48.776;9.124;2023-04-06T13:12:16;4.25;;;3.58;;
55913;SDS011;58179;48.776;9.124;2023-04-06T13:14:42;10.10;;;4.83;;
55913;SDS011;58179;48.776;9.124;2023-04-06T13:17:08;4.18;;;3.25;;
55913;SDS011;58179;48.776;9.124;2023-04-06T13:19:34;6.22;;;4.20;;
55913;SDS011;58179;48.776;9.124;2023-04-06T13:22:00;4.13;;;3.30;;
55913;SDS011;58179;48.776;9.124;2023-04-06T13:24:26;4.05;;;3.33;;
55913;SDS011;58179;48.776;9.124;2023-04-06T13:26:53;5.20;;;3.87;;
55913;SDS011;58179;48.776;9.124;2023-04-06T13:29:20;6.88;;;4.03;;
55913;SDS011;58179;48.776;9.124;2023-04-06T13:31:46;5.57;;;4.33;;
55913;SDS011;58179;48.776;9.124;2023-04-06T13:34:12;4.53;;;3.50;;
55913;SDS011;58179;48.776;9.124;2023-04-06T13:36:39;8.55;;;5.05;;
55913;SDS011;58179;48.776;9.124;2023-04-06T13:39:06;6.45;;;5.00;;
55913;SDS011;58179;48.776;9.124;2023-04-06T13:41:32;5.63;;;3.78;;
55913;SDS011;58179;48.776;9.124;2023-04-06T13:43:58;5.07;;;3.70;;
55913;SDS011;58179;48.776;9.124;2023-04-06T13:46:26;5.80;;;4.47;;
55913;SDS011;58179;48.776;9.124;2023-04-06T13:48:52;7.13;;;4.40;;
55913;SDS011;58179;48.776;9.124;2023-04-06T13:51:18;4.30;;;3.63;;
55913;SDS011;58179;48.776;9.124;2023-04-06T13:53:44;5.50;;;3.97;;
55913;SDS011;58179;48.776;9.124;2023-04-06T13:56:10;4.75;;;3.70;;
55913;SDS011;58179;48.776;9.124;2023-04-06T13:58:36;11.48;;;7.32;;
55913;SDS011;58179;48.776;9.124;2023-04-06T14:01:03;4.60;;;3.87;;
55913;SDS011;58179;48.776;9.124;2023-04-06T14:03:32;6.90;;;3.97;;
55913;SDS011;58179;48.776;9.124;2023-04-06T14:05:58;6.53;;;4.93;;
55913;SDS011;58179;48.776;9.124;2023-04-06T14:08:24;5.03;;;3.70;;
55913;SDS011;58179;48.776;9.124;2023-04-06T14:10:50;4.85;;;3.15;;
55913;SDS011;58179;48.776;9.124;2023-04-06T14:13:16;4.70;;;3.80;;
55913;SDS011;58179;48.776;9.124;2023-04-06T14:15:43;5.10;;;3.17;;
55913;SDS011;58179;48.776;9.124;2023-04-06T14:18:09;5.97;;;4.70;;
55913;SDS011;58179;48.776;9.124;2023-04-06T14:20:36;8.17;;;5.50;;
55913;SDS011;58179;48.776;9.124;2023-04-06T14:23:03;10.88;;;7.40;;
55913;SDS011;58179;48.776;9.124;2023-04-06T14:25:29;8.15;;;5.60;;
55913;SDS011;58179;48.776;9.124;2023-04-06T14:27:59;5.50;;;4.10;;